Chuckanut, Washington
Current Conditions -  °F | °C
As of 1:28 PM on Monday 24 Nov 2014 (Local Time) from KBLI Reporting Station
Overcast Overcast  
Wind Chill: 52°   Ceiling: 2800
Heat Index: 52°   Visibility: 10mi
Dew Point: 37°   Wind: 14mph
Humidity: 58%   Direction: 150°SSE
Pressure: 30.19"   Gusts: 20mph
Location:  48.7531°N, 122.502°W
Report Text: KBLI 242128Z 15012G17KT 10SM BKN028 OVC060 11/03 A3019 RMK AO2 RAB09E25 P0000
Loading
Personal Weather Stations






























Interactive Weather Map New forecast layout! Learn more

10-Day Weather Forecast

Advertisements
Track Severe Weather on mobile